createdAt,value
2019-05-17T00:01:07.284Z,20.40
2019-05-17T00:03:36.620Z,20.40
2019-05-17T00:06:06.715Z,20.40
2019-05-17T00:08:38.191Z,20.40
2019-05-17T00:11:07.779Z,20.40
2019-05-17T00:13:38.502Z,20.40
2019-05-17T00:16:07.329Z,20.40
2019-05-17T00:18:37.058Z,20.40
2019-05-17T00:21:07.763Z,20.40
2019-05-17T00:23:37.476Z,20.30
2019-05-17T00:26:07.127Z,20.40
2019-05-17T00:28:37.531Z,20.40
2019-05-17T00:31:06.686Z,20.30
2019-05-17T00:33:36.643Z,20.30
2019-05-17T00:36:06.944Z,20.30
2019-05-17T00:38:47.994Z,20.30
2019-05-17T00:41:07.274Z,20.30
2019-05-17T00:43:36.821Z,20.30
2019-05-17T00:46:06.732Z,20.30
2019-05-17T00:48:37.250Z,20.30
2019-05-17T00:51:10.221Z,20.30
2019-05-17T00:53:37.265Z,20.30
2019-05-17T00:56:06.608Z,20.30
2019-05-17T00:58:37.038Z,20.20
2019-05-17T01:01:08.274Z,20.30
2019-05-17T01:03:36.383Z,20.30
2019-05-17T01:06:07.923Z,20.30
2019-05-17T01:08:37.284Z,20.30
2019-05-17T01:11:07.133Z,20.20
2019-05-17T01:13:37.407Z,20.30
2019-05-17T01:16:10.012Z,20.30
2019-05-17T01:18:38.692Z,20.30
2019-05-17T01:21:07.559Z,20.20
2019-05-17T01:23:36.349Z,20.20
2019-05-17T01:26:07.317Z,20.20
2019-05-17T01:28:36.335Z,20.20
2019-05-17T01:31:09.463Z,20.20
2019-05-17T01:33:38.196Z,20.20
2019-05-17T01:36:07.411Z,20.20
2019-05-17T01:38:37.737Z,20.20
2019-05-17T01:41:07.019Z,20.20
2019-05-17T01:43:36.988Z,20.20
2019-05-17T01:46:07.833Z,20.20
2019-05-17T01:48:36.737Z,20.20
2019-05-17T01:51:07.597Z,20.20
2019-05-17T01:53:36.604Z,20.20
2019-05-17T01:56:06.400Z,20.10
2019-05-17T01:58:36.522Z,20.20
2019-05-17T02:01:07.658Z,20.10
2019-05-17T02:03:37.476Z,20.10
2019-05-17T02:06:07.472Z,20.10
2019-05-17T02:08:37.273Z,20.10
2019-05-17T02:11:07.162Z,20.10
2019-05-17T02:13:37.637Z,20.10
2019-05-17T02:16:07.142Z,20.10
2019-05-17T02:18:37.254Z,20.10
2019-05-17T02:21:06.522Z,20.00
2019-05-17T02:23:37.223Z,20.00
2019-05-17T02:26:06.616Z,20.00
2019-05-17T02:28:35.512Z,20.00
2019-05-17T02:31:04.231Z,20.00
2019-05-17T02:33:33.437Z,20.00
2019-05-17T02:36:02.972Z,20.00
2019-05-17T02:38:33.341Z,20.00
2019-05-17T02:41:03.319Z,20.00
2019-05-17T02:43:33.509Z,20.00
2019-05-17T02:46:03.738Z,19.90
2019-05-17T02:48:33.877Z,20.00
2019-05-17T02:51:04.167Z,19.90
2019-05-17T02:53:33.889Z,20.00
2019-05-17T02:56:03.430Z,19.90
2019-05-17T02:58:33.100Z,19.90
2019-05-17T03:01:03.948Z,19.90
2019-05-17T03:03:32.807Z,19.90
2019-05-17T03:06:03.093Z,19.90
2019-05-17T03:08:34.130Z,19.90
2019-05-17T03:11:03.257Z,19.90
2019-05-17T03:13:33.003Z,19.90
2019-05-17T03:16:03.364Z,19.90
2019-05-17T03:18:33.412Z,19.90
2019-05-17T03:21:03.747Z,19.90
2019-05-17T03:23:33.074Z,19.90
2019-05-17T03:26:03.593Z,19.90
2019-05-17T03:28:33.951Z,19.90
2019-05-17T03:31:07.643Z,19.90
2019-05-17T03:33:36.003Z,19.90
2019-05-17T03:36:06.101Z,19.90
2019-05-17T03:38:34.758Z,19.90
2019-05-17T03:41:17.791Z,19.90
2019-05-17T03:43:37.703Z,19.90
2019-05-17T03:46:05.885Z,19.80
2019-05-17T03:48:34.568Z,19.90
2019-05-17T03:51:03.163Z,19.90
2019-05-17T03:53:33.456Z,19.80
2019-05-17T03:56:03.134Z,19.90
2019-05-17T03:58:33.343Z,19.80
2019-05-17T04:01:04.155Z,19.80
2019-05-17T04:03:35.557Z,19.80
2019-05-17T04:06:03.823Z,19.80
2019-05-17T04:08:35.970Z,19.80
2019-05-17T04:11:20.626Z,19.80
2019-05-17T04:13:34.965Z,19.80
2019-05-17T04:16:08.666Z,19.80
2019-05-17T04:18:34.459Z,19.80
2019-05-17T04:21:03.626Z,19.70
2019-05-17T04:23:33.864Z,19.70
2019-05-17T04:26:04.252Z,19.80
2019-05-17T04:28:33.670Z,19.70
2019-05-17T04:31:02.940Z,19.70
2019-05-17T04:33:33.730Z,19.70
2019-05-17T04:36:02.751Z,19.70
2019-05-17T04:38:33.215Z,19.70
2019-05-17T04:41:03.219Z,19.70
2019-05-17T04:43:33.386Z,19.70
2019-05-17T04:46:03.438Z,19.70
2019-05-17T04:48:32.849Z,19.70
2019-05-17T04:51:02.801Z,19.70
2019-05-17T04:53:32.829Z,19.60
2019-05-17T04:56:03.152Z,19.60
2019-05-17T04:58:33.564Z,19.60
2019-05-17T05:01:03.887Z,19.60
2019-05-17T05:03:33.142Z,19.60
2019-05-17T05:06:03.047Z,19.60
2019-05-17T05:08:33.064Z,19.60
2019-05-17T05:11:04.069Z,19.60
2019-05-17T05:13:33.344Z,19.60
2019-05-17T05:16:03.034Z,19.60
2019-05-17T05:18:32.696Z,19.60
2019-05-17T05:21:03.472Z,19.60
2019-05-17T05:23:31.986Z,19.60
2019-05-17T05:26:02.821Z,19.60
2019-05-17T05:28:31.805Z,19.60
2019-05-17T05:31:01.917Z,19.60
2019-05-17T05:33:32.991Z,19.60
2019-05-17T05:36:02.222Z,19.60
2019-05-17T05:38:32.250Z,19.60
2019-05-17T05:41:01.869Z,19.60
2019-05-17T05:43:32.684Z,19.60
2019-05-17T05:46:02.584Z,19.60
2019-05-17T05:48:32.554Z,19.60
2019-05-17T05:51:03.527Z,19.60
2019-05-17T05:53:32.521Z,19.60
2019-05-17T05:56:03.281Z,19.60
2019-05-17T05:58:32.197Z,19.60
2019-05-17T06:01:02.417Z,19.60
2019-05-17T06:03:32.085Z,19.60
2019-05-17T06:06:01.852Z,19.50
2019-05-17T06:08:33.710Z,19.60
2019-05-17T06:11:02.525Z,19.50
2019-05-17T06:13:33.923Z,19.60
2019-05-17T06:16:02.973Z,19.60
2019-05-17T06:18:32.758Z,19.60
2019-05-17T06:21:03.031Z,19.60
2019-05-17T06:23:32.067Z,19.60
2019-05-17T06:26:04.677Z,19.60
2019-05-17T06:28:36.383Z,19.60
2019-05-17T06:31:05.293Z,19.60
2019-05-17T06:33:34.985Z,19.60
2019-05-17T06:36:03.802Z,19.60
2019-05-17T06:38:32.989Z,19.50
2019-05-17T06:41:01.805Z,19.60
2019-05-17T06:43:32.224Z,19.50
2019-05-17T06:46:01.789Z,19.60
2019-05-17T06:48:31.870Z,19.50
2019-05-17T06:51:02.511Z,19.50
2019-05-17T06:53:32.340Z,19.50
2019-05-17T06:56:02.838Z,19.50
2019-05-17T06:58:32.193Z,19.50
2019-05-17T07:01:01.204Z,19.50
2019-05-17T07:03:30.405Z,19.50
2019-05-17T07:06:00.816Z,19.50
2019-05-17T07:08:29.665Z,19.50
2019-05-17T07:10:59.738Z,19.50
2019-05-17T07:13:30.146Z,19.50
2019-05-17T07:15:59.668Z,19.50
2019-05-17T07:18:30.069Z,19.40
2019-05-17T07:21:02.838Z,19.50
2019-05-17T07:23:30.381Z,19.50
2019-05-17T07:25:59.641Z,19.60
2019-05-17T07:28:30.184Z,19.60
2019-05-17T07:30:59.617Z,19.60
2019-05-17T07:33:30.525Z,19.70
2019-05-17T07:35:59.601Z,19.70
2019-05-17T07:38:30.280Z,19.80
2019-05-17T07:40:59.522Z,19.90
2019-05-17T07:43:29.805Z,19.90
2019-05-17T07:46:00.624Z,20.00
2019-05-17T07:48:31.298Z,20.10
2019-05-17T07:51:00.273Z,20.10
2019-05-17T07:53:30.655Z,20.10
2019-05-17T07:55:59.778Z,20.10
2019-05-17T07:58:29.892Z,20.20
2019-05-17T08:01:02.126Z,20.20
2019-05-17T08:03:30.242Z,20.50
2019-05-17T08:05:59.949Z,20.40
2019-05-17T08:08:31.161Z,20.30
2019-05-17T08:11:00.303Z,20.30
2019-05-17T08:13:31.291Z,20.30
2019-05-17T08:15:59.659Z,20.20
2019-05-17T08:18:29.634Z,20.20
2019-05-17T08:20:59.758Z,20.20
2019-05-17T08:23:30.469Z,20.20
2019-05-17T08:26:00.404Z,20.20
2019-05-17T08:28:31.201Z,20.10
2019-05-17T08:31:01.100Z,20.10
2019-05-17T08:33:30.472Z,20.10
2019-05-17T08:35:59.902Z,20.10
2019-05-17T08:38:30.553Z,20.10
2019-05-17T08:43:39.873Z,20.20
2019-05-17T08:46:01.970Z,20.10
2019-05-17T08:48:30.364Z,20.10
2019-05-17T08:51:01.942Z,20.20
2019-05-17T08:53:30.782Z,20.10
2019-05-17T08:56:00.930Z,20.10
2019-05-17T08:58:30.924Z,20.10
2019-05-17T09:01:00.401Z,20.10
2019-05-17T09:03:30.420Z,20.10
2019-05-17T09:06:02.218Z,20.10
2019-05-17T09:08:32.455Z,20.10
2019-05-17T09:11:01.168Z,20.10
2019-05-17T09:13:29.958Z,20.10
2019-05-17T09:16:00.361Z,20.10
2019-05-17T09:18:30.969Z,20.10
2019-05-17T09:21:00.302Z,20.10
2019-05-17T09:23:30.466Z,20.10
2019-05-17T09:25:59.629Z,20.10
2019-05-17T09:28:30.043Z,20.10
2019-05-17T09:31:03.127Z,20.10
2019-05-17T09:33:31.878Z,20.10
2019-05-17T09:36:01.092Z,20.10
2019-05-17T09:38:30.249Z,20.10
2019-05-17T09:41:01.965Z,20.10
2019-05-17T09:43:30.675Z,20.10
2019-05-17T09:46:02.391Z,20.10
2019-05-17T09:48:31.067Z,20.00
2019-05-17T09:51:01.679Z,20.00
2019-05-17T09:53:30.855Z,20.10
2019-05-17T09:56:00.463Z,20.00
2019-05-17T09:58:30.970Z,19.90
2019-05-17T10:01:01.671Z,19.90
2019-05-17T10:03:30.900Z,19.90
2019-05-17T10:06:00.743Z,19.90
2019-05-17T10:08:30.063Z,19.90
2019-05-17T10:11:08.438Z,19.90
2019-05-17T10:13:30.231Z,19.90
2019-05-17T10:16:00.461Z,19.90
2019-05-17T10:18:30.621Z,19.90
2019-05-17T10:21:00.229Z,19.90
2019-05-17T10:23:29.943Z,19.90
2019-05-17T10:25:59.579Z,19.90
2019-05-17T10:28:28.510Z,19.90
2019-05-17T10:30:57.230Z,20.00
2019-05-17T10:50:36.350Z,21.40
2019-05-17T10:53:05.036Z,20.90
2019-05-17T10:55:33.851Z,20.60
2019-05-17T10:58:02.718Z,20.50
2019-05-17T11:00:31.561Z,20.50
2019-05-17T11:03:00.763Z,20.40
2019-05-17T11:05:30.847Z,20.40
2019-05-17T11:08:00.008Z,20.40
2019-05-17T11:10:28.690Z,20.40
2019-05-17T11:20:22.308Z,21.70
2019-05-17T11:33:36.640Z,22.10
2019-05-17T11:36:05.574Z,21.90
2019-05-17T11:38:34.523Z,21.80
2019-05-17T11:44:07.414Z,21.80
2019-05-17T11:46:36.712Z,21.80
2019-05-17T11:49:05.566Z,21.80
2019-05-17T11:51:34.324Z,21.80
2019-05-17T11:54:03.094Z,21.90
2019-05-17T11:56:37.178Z,21.80
2019-05-17T11:59:05.968Z,21.80
2019-05-17T12:01:34.765Z,21.70
2019-05-17T12:04:03.429Z,21.70
2019-05-17T12:06:32.090Z,21.60
2019-05-17T12:09:00.915Z,21.50
2019-05-17T12:11:31.216Z,21.50
2019-05-17T12:13:59.954Z,21.50
2019-05-17T12:16:29.405Z,21.40
2019-05-17T12:18:58.121Z,21.30
2019-05-17T12:21:26.730Z,21.30
2019-05-17T12:23:55.510Z,21.20
2019-05-17T12:26:24.306Z,21.20
2019-05-17T12:28:52.987Z,21.10
2019-05-17T12:31:21.747Z,21.20
2019-05-17T12:33:50.438Z,21.20
2019-05-17T12:36:19.226Z,21.10
2019-05-17T12:41:31.004Z,21.10
2019-05-17T12:44:07.792Z,21.00
2019-05-17T12:46:41.470Z,20.90
2019-05-17T12:49:10.491Z,20.90
2019-05-17T12:51:40.384Z,20.90
2019-05-17T12:54:09.720Z,20.90
2019-05-17T12:56:41.639Z,20.80
2019-05-17T12:59:19.464Z,20.80
2019-05-17T13:01:50.568Z,20.80
2019-05-17T13:04:19.637Z,20.70
2019-05-17T13:06:48.735Z,20.70
2019-05-17T13:09:21.111Z,20.70
2019-05-17T13:11:52.726Z,20.60
2019-05-17T13:17:36.574Z,20.50
2019-05-17T13:20:09.720Z,20.50
2019-05-17T13:22:38.433Z,20.50
2019-05-17T13:25:08.487Z,20.50
2019-05-17T13:27:39.333Z,20.50
2019-05-17T13:30:10.056Z,20.40
2019-05-17T13:32:38.852Z,20.40
2019-05-17T13:35:07.675Z,20.40
2019-05-17T13:37:36.369Z,20.40
2019-05-17T13:40:05.987Z,20.40
2019-05-17T13:42:34.661Z,20.30
2019-05-17T13:45:04.053Z,20.30
2019-05-17T13:47:34.228Z,20.30
2019-05-17T13:50:03.331Z,20.30
2019-05-17T13:52:31.993Z,20.30
2019-05-17T13:55:02.455Z,20.30
2019-05-17T13:57:31.188Z,20.20
2019-05-17T13:59:59.896Z,20.30
2019-05-17T14:02:28.633Z,20.20
2019-05-17T14:04:57.393Z,20.20
2019-05-17T14:07:26.084Z,20.20
2019-05-17T14:09:55.816Z,20.20
2019-05-17T14:12:24.503Z,20.20
2019-05-17T14:14:53.195Z,20.20
2019-05-17T14:17:21.828Z,20.20
2019-05-17T14:19:50.528Z,20.20
2019-05-17T14:22:19.234Z,20.20
2019-05-17T14:24:48.015Z,20.10
2019-05-17T14:27:16.850Z,20.20
2019-05-17T14:29:45.767Z,20.10
2019-05-17T14:32:15.763Z,20.10
2019-05-17T14:34:44.559Z,20.10
2019-05-17T14:37:13.350Z,20.10
2019-05-17T14:39:42.022Z,20.10
2019-05-17T14:42:10.783Z,20.10
2019-05-17T14:44:39.448Z,20.10
2019-05-17T14:47:08.124Z,20.00
2019-05-17T14:49:37.072Z,20.00
2019-05-17T14:52:05.779Z,20.00
2019-05-17T14:54:34.468Z,20.00
2019-05-17T14:57:03.412Z,20.00
2019-05-17T14:59:32.077Z,20.00
2019-05-17T15:02:00.830Z,20.00
2019-05-17T15:04:29.604Z,20.00
